Time;durP1;ratioP1;P1;durP2;ratioP2;P2;SDS_P1;SDS_P2;PMS_P1;PMS_P2;Temp;Humidity;BMP_temperature;BMP_pressure;BME280_temperature;BME280_humidity;BME280_pressure;Samples;Min_cycle;Max_cycle;Signal;HPM_P1;HPM_P2
2023/09/03 00:01:31;;;;;;;;;;;14.40;99.90;;;;;;5017648;28;19925;-40
2023/09/03 00:03:59;;;;;;;;;;;14.40;99.90;;;;;;5026303;28;19925;-40
2023/09/03 00:06:26;;;;;;;;;;;14.30;99.90;;;;;;5032182;28;20411;-40
2023/09/03 00:08:53;;;;;;;;;;;14.30;99.90;;;;;;5057000;28;20276;-40
2023/09/03 00:11:19;;;;;;;;;;;14.30;99.90;;;;;;5012725;28;20014;-40
2023/09/03 00:13:46;;;;;;;;;;;14.20;99.90;;;;;;5012457;28;19964;-40
2023/09/03 00:16:13;;;;;;;;;;;14.20;99.90;;;;;;5022893;28;19932;-40
2023/09/03 00:18:40;;;;;;;;;;;14.20;99.90;;;;;;5032157;28;19936;-40
2023/09/03 00:21:08;;;;;;;;;;;14.20;99.90;;;;;;5030430;28;19943;-40
2023/09/03 00:23:34;;;;;;;;;;;14.10;99.90;;;;;;5028810;28;19932;-40
2023/09/03 00:26:01;;;;;;;;;;;14.10;99.90;;;;;;5021041;28;19987;-40
2023/09/03 00:28:28;;;;;;;;;;;14.10;99.90;;;;;;5015665;28;20292;-40
2023/09/03 00:31:01;;;;;;;;;;;14.10;99.90;;;;;;5031938;28;19949;-41
2023/09/03 00:33:28;;;;;;;;;;;14.10;99.90;;;;;;5026616;28;20366;-41
2023/09/03 00:35:55;;;;;;;;;;;14.00;99.90;;;;;;5029301;28;19925;-40
2023/09/03 00:38:23;;;;;;;;;;;14.00;99.90;;;;;;5010815;28;20025;-40
2023/09/03 00:40:50;;;;;;;;;;;14.00;99.90;;;;;;5012919;28;19941;-40
2023/09/03 00:43:17;;;;;;;;;;;13.90;99.90;;;;;;5023103;28;20043;-40
2023/09/03 00:45:43;;;;;;;;;;;13.90;99.90;;;;;;5031761;28;19972;-40
2023/09/03 00:48:10;;;;;;;;;;;13.90;99.90;;;;;;5014935;28;19941;-41
2023/09/03 00:50:36;;;;;;;;;;;13.90;99.90;;;;;;5045584;28;19929;-41
2023/09/03 00:53:03;;;;;;;;;;;13.90;99.90;;;;;;5012910;28;19963;-40
2023/09/03 00:55:32;;;;;;;;;;;13.90;99.90;;;;;;5018930;28;19925;-40
2023/09/03 00:57:58;;;;;;;;;;;13.80;99.90;;;;;;5031919;28;19930;-41
2023/09/03 01:00:25;;;;;;;;;;;13.80;99.90;;;;;;5033949;28;19937;-40
2023/09/03 01:02:52;;;;;;;;;;;13.70;99.90;;;;;;5021563;28;19935;-40
2023/09/03 01:05:19;;;;;;;;;;;13.70;99.90;;;;;;5015784;28;19996;-40
2023/09/03 01:07:46;;;;;;;;;;;13.70;99.90;;;;;;5022035;28;19926;-40
2023/09/03 01:10:12;;;;;;;;;;;13.70;99.90;;;;;;5015462;28;20266;-40
2023/09/03 01:12:41;;;;;;;;;;;13.60;99.90;;;;;;5026962;28;20332;-40
2023/09/03 01:15:09;;;;;;;;;;;13.60;99.90;;;;;;5033964;28;19967;-40
2023/09/03 01:17:37;;;;;;;;;;;13.60;99.90;;;;;;5023199;28;19969;-40
2023/09/03 01:20:06;;;;;;;;;;;13.60;99.90;;;;;;5015392;28;20465;-41
2023/09/03 01:22:37;;;;;;;;;;;13.50;99.90;;;;;;5014078;28;19947;-40
2023/09/03 01:25:09;;;;;;;;;;;13.50;99.90;;;;;;5016415;28;20008;-40
2023/09/03 01:27:37;;;;;;;;;;;13.50;99.90;;;;;;5015846;28;20350;-40
2023/09/03 01:30:05;;;;;;;;;;;13.50;99.90;;;;;;5030573;28;19952;-40
2023/09/03 01:32:32;;;;;;;;;;;13.50;99.90;;;;;;5033688;28;20022;-40
2023/09/03 01:34:59;;;;;;;;;;;13.50;99.90;;;;;;5033842;28;19929;-41
2023/09/03 01:37:25;;;;;;;;;;;13.50;99.90;;;;;;5033734;28;20458;-40
2023/09/03 01:39:52;;;;;;;;;;;13.50;99.90;;;;;;5033946;28;20030;-40
2023/09/03 01:42:19;;;;;;;;;;;13.40;99.90;;;;;;5027964;28;19955;-40
2023/09/03 01:44:45;;;;;;;;;;;13.50;99.90;;;;;;5030784;28;19945;-40
2023/09/03 01:47:15;;;;;;;;;;;13.40;99.90;;;;;;5021008;28;19964;-40
2023/09/03 01:49:43;;;;;;;;;;;13.40;99.90;;;;;;5034527;28;19973;-40
2023/09/03 01:52:13;;;;;;;;;;;13.40;99.90;;;;;;5033405;28;20413;-41
2023/09/03 01:54:41;;;;;;;;;;;13.40;99.90;;;;;;5030413;28;19991;-40
2023/09/03 01:57:08;;;;;;;;;;;13.40;99.90;;;;;;5015024;28;19975;-40
2023/09/03 01:59:36;;;;;;;;;;;13.40;99.90;;;;;;5023406;28;19926;-40
2023/09/03 02:02:03;;;;;;;;;;;13.40;99.90;;;;;;5023683;28;20457;-40
2023/09/03 02:04:31;;;;;;;;;;;13.40;99.90;;;;;;5029946;28;20415;-40
2023/09/03 02:06:58;;;;;;;;;;;13.40;99.90;;;;;;5029319;28;19929;-40
2023/09/03 02:09:24;;;;;;;;;;;13.40;99.90;;;;;;5046492;28;19926;-40
2023/09/03 02:11:51;;;;;;;;;;;13.40;99.90;;;;;;5014925;28;20001;-40
2023/09/03 02:14:18;;;;;;;;;;;13.40;99.90;;;;;;5034193;28;20309;-40
2023/09/03 02:16:44;;;;;;;;;;;13.40;99.90;;;;;;5033028;28;19924;-40
2023/09/03 02:19:11;;;;;;;;;;;13.40;99.90;;;;;;5033882;28;20393;-41
2023/09/03 02:21:39;;;;;;;;;;;13.40;99.90;;;;;;5033223;28;20053;-40
2023/09/03 02:24:06;;;;;;;;;;;13.40;99.90;;;;;;5021369;28;20326;-40
2023/09/03 02:26:32;;;;;;;;;;;13.40;99.90;;;;;;5019697;28;19925;-40
2023/09/03 02:28:59;;;;;;;;;;;13.40;99.90;;;;;;5014242;28;19988;-40
2023/09/03 02:31:26;;;;;;;;;;;13.40;99.90;;;;;;5014288;28;19932;-40
2023/09/03 02:33:52;;;;;;;;;;;13.30;99.90;;;;;;5014044;28;20313;-40
2023/09/03 02:36:19;;;;;;;;;;;13.30;99.90;;;;;;5016288;28;19967;-40
2023/09/03 02:38:47;;;;;;;;;;;13.30;99.90;;;;;;5031686;28;19947;-40
2023/09/03 02:41:14;;;;;;;;;;;13.30;99.90;;;;;;5021078;28;20370;-40
2023/09/03 02:43:40;;;;;;;;;;;13.30;99.90;;;;;;5025186;28;20351;-40
2023/09/03 02:46:07;;;;;;;;;;;13.20;99.90;;;;;;5026138;28;20079;-40
2023/09/03 02:48:34;;;;;;;;;;;13.20;99.90;;;;;;5013734;28;19992;-40
2023/09/03 02:51:01;;;;;;;;;;;13.20;99.90;;;;;;5013592;28;19933;-40
2023/09/03 02:53:28;;;;;;;;;;;13.20;99.90;;;;;;5012745;28;20455;-40
2023/09/03 02:55:59;;;;;;;;;;;13.20;99.90;;;;;;5013817;28;19925;-40
2023/09/03 02:58:26;;;;;;;;;;;13.10;99.90;;;;;;5029193;28;19932;-40
2023/09/03 03:00:52;;;;;;;;;;;13.10;99.90;;;;;;5012381;28;19968;-41
2023/09/03 03:03:19;;;;;;;;;;;13.10;99.90;;;;;;5015319;28;19940;-40
2023/09/03 03:05:46;;;;;;;;;;;13.10;99.90;;;;;;5031227;28;20334;-40
2023/09/03 03:08:12;;;;;;;;;;;13.10;99.90;;;;;;5047426;28;19960;-40
2023/09/03 03:10:39;;;;;;;;;;;13.00;99.90;;;;;;5019237;28;19943;-40
2023/09/03 03:13:07;;;;;;;;;;;13.00;99.90;;;;;;5032216;28;19985;-40
2023/09/03 03:15:35;;;;;;;;;;;13.00;99.90;;;;;;5016830;28;20311;-40
2023/09/03 03:18:02;;;;;;;;;;;12.90;99.90;;;;;;5011976;28;19965;-40
2023/09/03 03:20:28;;;;;;;;;;;12.90;99.90;;;;;;5012164;28;19947;-40
2023/09/03 03:22:55;;;;;;;;;;;12.90;99.90;;;;;;5015496;28;19957;-40
2023/09/03 03:25:22;;;;;;;;;;;12.90;99.90;;;;;;5021574;28;19956;-40
2023/09/03 03:27:48;;;;;;;;;;;12.80;99.90;;;;;;5016405;28;20328;-40
2023/09/03 03:30:16;;;;;;;;;;;12.80;99.90;;;;;;5027463;28;19947;-40
2023/09/03 03:32:43;;;;;;;;;;;12.80;99.90;;;;;;5029767;28;20016;-40
2023/09/03 03:35:10;;;;;;;;;;;12.80;99.90;;;;;;5032296;28;19963;-40
2023/09/03 03:37:37;;;;;;;;;;;12.80;99.90;;;;;;5029149;28;19937;-40
2023/09/03 03:40:06;;;;;;;;;;;12.80;99.90;;;;;;5031115;28;19925;-40
2023/09/03 03:42:32;;;;;;;;;;;12.80;99.90;;;;;;5031959;28;19936;-40
2023/09/03 03:44:59;;;;;;;;;;;12.80;99.90;;;;;;5054416;28;19973;-40
2023/09/03 03:47:27;;;;;;;;;;;12.80;99.90;;;;;;5019201;28;19967;-39
2023/09/03 03:49:54;;;;;;;;;;;12.70;99.90;;;;;;5012722;28;20027;-40
2023/09/03 03:52:21;;;;;;;;;;;12.70;99.90;;;;;;5058584;28;19932;-41
2023/09/03 03:54:48;;;;;;;;;;;12.60;99.90;;;;;;5032593;28;20018;-40
2023/09/03 03:57:14;;;;;;;;;;;12.60;99.90;;;;;;5032525;28;19925;-40
2023/09/03 03:59:44;;;;;;;;;;;12.60;99.90;;;;;;5044842;28;20018;-40
2023/09/03 04:02:11;;;;;;;;;;;12.60;99.90;;;;;;5014815;28;19926;-40
2023/09/03 04:04:39;;;;;;;;;;;12.50;99.90;;;;;;5016439;28;19961;-40
2023/09/03 04:07:06;;;;;;;;;;;12.50;99.90;;;;;;5021053;28;20366;-40
2023/09/03 04:09:32;;;;;;;;;;;12.50;99.90;;;;;;5021763;28;20013;-40
2023/09/03 04:11:59;;;;;;;;;;;12.50;99.90;;;;;;5012365;28;19959;-41
2023/09/03 04:14:26;;;;;;;;;;;12.50;99.90;;;;;;5044979;28;19972;-40
2023/09/03 04:16:52;;;;;;;;;;;12.40;99.90;;;;;;5012800;28;20053;-41
2023/09/03 04:19:19;;;;;;;;;;;12.40;99.90;;;;;;5012385;28;20405;-40
2023/09/03 04:21:47;;;;;;;;;;;12.40;99.90;;;;;;5024413;28;19963;-40
2023/09/03 04:24:14;;;;;;;;;;;12.40;99.90;;;;;;5028078;28;19940;-40
2023/09/03 04:26:41;;;;;;;;;;;12.40;99.90;;;;;;5025581;28;20369;-40
2023/09/03 04:29:07;;;;;;;;;;;12.40;99.90;;;;;;5028801;28;19960;-40
2023/09/03 04:31:35;;;;;;;;;;;12.40;99.90;;;;;;5023832;28;19968;-40
2023/09/03 04:34:02;;;;;;;;;;;12.40;99.90;;;;;;5015643;28;20259;-40
2023/09/03 04:36:29;;;;;;;;;;;12.30;99.90;;;;;;5033669;28;19929;-40
2023/09/03 04:38:57;;;;;;;;;;;12.30;99.90;;;;;;5026345;28;20011;-40
2023/09/03 04:41:23;;;;;;;;;;;12.30;99.90;;;;;;5017514;28;19941;-40
2023/09/03 04:43:51;;;;;;;;;;;12.30;99.90;;;;;;5016037;28;20043;-40
2023/09/03 04:46:17;;;;;;;;;;;12.30;99.90;;;;;;5017726;28;19936;-40
2023/09/03 04:48:44;;;;;;;;;;;12.30;99.90;;;;;;5020508;28;19948;-40
2023/09/03 04:51:11;;;;;;;;;;;12.30;99.90;;;;;;5016202;28;20004;-41
2023/09/03 04:53:36;;;;;;;;;;;12.30;99.90;;;;;;5029462;28;19972;-40
2023/09/03 04:56:10;;;;;;;;;;;12.30;99.90;;;;;;5032038;28;19989;-40
2023/09/03 04:58:37;;;;;;;;;;;12.30;99.90;;;;;;5028201;28;19959;-40
2023/09/03 05:01:12;;;;;;;;;;;12.40;99.90;;;;;;5025572;28;19967;-40
2023/09/03 05:03:39;;;;;;;;;;;12.40;99.90;;;;;;5017501;28;20007;-41
2023/09/03 05:06:05;;;;;;;;;;;12.30;99.90;;;;;;5035169;28;20404;-41
2023/09/03 05:08:32;;;;;;;;;;;12.30;99.90;;;;;;5035533;28;19935;-40
2023/09/03 05:11:07;;;;;;;;;;;12.40;99.90;;;;;;5055459;28;19970;-40
2023/09/03 05:13:34;;;;;;;;;;;12.30;99.90;;;;;;5019986;28;19983;-40
2023/09/03 05:16:01;;;;;;;;;;;12.30;99.90;;;;;;5032604;28;20340;-40
2023/09/03 05:18:27;;;;;;;;;;;12.40;99.90;;;;;;5015805;28;19925;-40
2023/09/03 05:20:54;;;;;;;;;;;12.40;99.90;;;;;;5032233;28;19939;-40
2023/09/03 05:23:21;;;;;;;;;;;12.40;99.90;;;;;;5032304;28;20271;-40
2023/09/03 05:25:48;;;;;;;;;;;12.40;99.90;;;;;;5060284;28;19925;-40
2023/09/03 05:28:16;;;;;;;;;;;12.40;99.90;;;;;;5015739;28;19998;-40
2023/09/03 05:30:42;;;;;;;;;;;12.50;99.90;;;;;;5039788;28;19957;-41
2023/09/03 05:33:09;;;;;;;;;;;12.50;99.90;;;;;;5013994;28;19967;-40
2023/09/03 05:35:36;;;;;;;;;;;12.50;99.90;;;;;;5018451;28;19960;-40
2023/09/03 05:38:02;;;;;;;;;;;12.50;99.90;;;;;;5029997;28;19959;-40
2023/09/03 05:40:29;;;;;;;;;;;12.50;99.90;;;;;;5023866;28;19940;-40
2023/09/03 05:42:56;;;;;;;;;;;12.60;99.90;;;;;;5018488;28;20339;-41
2023/09/03 05:45:24;;;;;;;;;;;12.60;99.90;;;;;;5033927;28;19940;-41
2023/09/03 05:47:50;;;;;;;;;;;12.60;99.90;;;;;;5031631;28;19925;-40
2023/09/03 05:50:17;;;;;;;;;;;12.70;99.90;;;;;;5032366;28;20009;-40
2023/09/03 05:52:44;;;;;;;;;;;12.70;99.90;;;;;;5020568;28;19963;-40
2023/09/03 05:55:11;;;;;;;;;;;12.70;99.90;;;;;;5015143;28;19926;-40
2023/09/03 05:57:37;;;;;;;;;;;12.80;99.90;;;;;;5014139;28;20039;-40
2023/09/03 06:00:06;;;;;;;;;;;12.80;99.90;;;;;;5029410;28;19948;-41
2023/09/03 06:02:35;;;;;;;;;;;12.90;99.90;;;;;;5033721;28;19925;-40
2023/09/03 06:05:02;;;;;;;;;;;13.00;99.90;;;;;;5020803;28;19939;-40
2023/09/03 06:07:28;;;;;;;;;;;13.00;99.90;;;;;;5064383;28;19972;-40
2023/09/03 06:09:55;;;;;;;;;;;13.10;99.90;;;;;;5031864;28;20459;-40
2023/09/03 06:12:22;;;;;;;;;;;13.10;99.90;;;;;;5033890;28;19971;-40
2023/09/03 06:14:48;;;;;;;;;;;13.20;99.90;;;;;;5066226;28;19940;-40
2023/09/03 06:17:15;;;;;;;;;;;13.30;99.90;;;;;;5030925;28;19947;-40
2023/09/03 06:19:48;;;;;;;;;;;13.40;99.90;;;;;;5013203;28;19941;-40
2023/09/03 06:22:15;;;;;;;;;;;13.40;99.90;;;;;;5024276;28;20361;-40
2023/09/03 06:24:41;;;;;;;;;;;13.50;99.90;;;;;;5016817;28;19959;-41
2023/09/03 06:27:08;;;;;;;;;;;13.60;99.90;;;;;;5033528;28;19925;-40
2023/09/03 06:29:35;;;;;;;;;;;13.70;99.90;;;;;;5030782;28;20414;-40
2023/09/03 06:32:01;;;;;;;;;;;13.70;99.90;;;;;;5027839;28;19925;-40
2023/09/03 06:34:28;;;;;;;;;;;13.80;99.90;;;;;;5017932;28;20057;-40
2023/09/03 06:36:56;;;;;;;;;;;13.80;99.90;;;;;;5060602;28;19929;-40
2023/09/03 06:39:25;;;;;;;;;;;13.90;99.90;;;;;;5059678;28;19929;-40
2023/09/03 06:41:52;;;;;;;;;;;13.90;99.90;;;;;;5022209;28;19956;-40
2023/09/03 06:44:18;;;;;;;;;;;14.00;99.90;;;;;;5023037;28;19925;-40
2023/09/03 06:46:45;;;;;;;;;;;14.10;99.90;;;;;;5026797;28;19968;-40
2023/09/03 06:49:12;;;;;;;;;;;14.20;99.90;;;;;;5029764;28;19968;-41
2023/09/03 06:51:38;;;;;;;;;;;14.30;99.90;;;;;;5029565;28;20339;-40
2023/09/03 06:54:07;;;;;;;;;;;14.40;99.90;;;;;;5029045;28;19960;-40
2023/09/03 06:56:33;;;;;;;;;;;14.40;99.90;;;;;;5028585;28;20340;-41
2023/09/03 06:59:01;;;;;;;;;;;14.50;99.90;;;;;;5018647;28;19967;-40
2023/09/03 07:01:27;;;;;;;;;;;14.60;99.90;;;;;;5027328;28;19925;-40
2023/09/03 07:03:54;;;;;;;;;;;14.70;99.90;;;;;;5029547;28;20289;-40
2023/09/03 07:06:21;;;;;;;;;;;14.80;99.90;;;;;;5023071;28;20010;-40
2023/09/03 07:08:47;;;;;;;;;;;15.00;99.90;;;;;;5030626;28;20015;-40
2023/09/03 07:11:15;;;;;;;;;;;15.10;99.90;;;;;;5031702;28;19963;-40
2023/09/03 07:13:42;;;;;;;;;;;15.20;99.90;;;;;;5031145;28;19942;-40
2023/09/03 07:16:09;;;;;;;;;;;15.40;99.90;;;;;;5021733;28;19930;-40
2023/09/03 07:18:35;;;;;;;;;;;15.50;99.90;;;;;;5023104;28;20328;-41
2023/09/03 07:21:03;;;;;;;;;;;15.60;99.90;;;;;;5025454;28;19960;-41
2023/09/03 07:23:30;;;;;;;;;;;15.80;99.90;;;;;;5023723;28;19925;-41
2023/09/03 07:26:00;;;;;;;;;;;16.00;99.90;;;;;;5023686;28;19937;-40
2023/09/03 07:28:28;;;;;;;;;;;16.10;99.90;;;;;;5024875;28;20277;-40
2023/09/03 07:30:55;;;;;;;;;;;16.30;99.90;;;;;;5049958;28;19925;-41
2023/09/03 07:33:21;;;;;;;;;;;16.50;99.90;;;;;;5026925;28;20308;-40
2023/09/03 07:35:48;;;;;;;;;;;16.60;99.90;;;;;;5023538;28;20644;-40
2023/09/03 07:38:15;;;;;;;;;;;16.80;99.90;;;;;;5026448;28;20007;-40
2023/09/03 07:40:41;;;;;;;;;;;16.90;99.90;;;;;;5051271;28;19975;-40
2023/09/03 07:43:08;;;;;;;;;;;17.10;99.90;;;;;;5051926;28;19961;-40
2023/09/03 07:45:36;;;;;;;;;;;17.20;99.90;;;;;;5021482;28;19972;-40
2023/09/03 07:48:03;;;;;;;;;;;17.30;99.90;;;;;;5018725;28;19987;-40
2023/09/03 07:50:31;;;;;;;;;;;17.50;99.90;;;;;;5056676;28;19962;-40
2023/09/03 07:52:58;;;;;;;;;;;17.60;99.90;;;;;;5063141;28;19925;-40
2023/09/03 07:55:25;;;;;;;;;;;17.80;99.90;;;;;;5034814;28;20355;-40
2023/09/03 07:57:51;;;;;;;;;;;17.90;99.90;;;;;;5028665;28;19960;-40
2023/09/03 08:00:19;;;;;;;;;;;18.00;99.90;;;;;;5032177;28;19947;-40
2023/09/03 08:02:47;;;;;;;;;;;18.20;99.90;;;;;;5029424;28;19940;-40
2023/09/03 08:05:14;;;;;;;;;;;18.40;99.90;;;;;;5059409;28;20460;-40
2023/09/03 08:07:41;;;;;;;;;;;18.50;99.90;;;;;;5014784;28;19960;-40
2023/09/03 08:10:09;;;;;;;;;;;18.60;99.90;;;;;;5055087;28;19959;-40
2023/09/03 08:12:35;;;;;;;;;;;18.70;99.90;;;;;;5028861;28;20000;-40
2023/09/03 08:15:02;;;;;;;;;;;18.90;99.90;;;;;;5060311;28;20393;-40
2023/09/03 08:17:30;;;;;;;;;;;19.00;99.90;;;;;;5018192;28;20082;-40
2023/09/03 08:19:58;;;;;;;;;;;19.10;99.90;;;;;;5028685;28;20018;-40
2023/09/03 08:22:25;;;;;;;;;;;19.20;99.90;;;;;;5016354;28;19958;-40
2023/09/03 08:24:51;;;;;;;;;;;19.40;99.90;;;;;;5062495;28;20002;-41
2023/09/03 08:27:18;;;;;;;;;;;19.50;99.90;;;;;;5024710;28;19946;-40
2023/09/03 08:29:45;;;;;;;;;;;19.50;99.90;;;;;;5026929;28;19936;-41
2023/09/03 08:32:11;;;;;;;;;;;19.50;99.90;;;;;;5061514;28;19933;-40
2023/09/03 08:34:38;;;;;;;;;;;19.60;99.90;;;;;;5029437;28;19947;-40
2023/09/03 08:37:06;;;;;;;;;;;19.70;99.90;;;;;;5032079;28;19939;-41
2023/09/03 08:39:33;;;;;;;;;;;19.80;99.90;;;;;;5029835;28;20029;-41
2023/09/03 08:41:59;;;;;;;;;;;19.80;99.90;;;;;;5030603;28;19933;-41
2023/09/03 08:44:27;;;;;;;;;;;20.00;99.90;;;;;;5030759;28;19948;-40
2023/09/03 08:46:55;;;;;;;;;;;20.00;99.90;;;;;;5031181;28;19949;-41
2023/09/03 08:49:22;;;;;;;;;;;20.00;99.90;;;;;;5028718;28;19991;-39
2023/09/03 08:51:48;;;;;;;;;;;20.10;99.90;;;;;;5030941;28;19948;-41
2023/09/03 08:54:16;;;;;;;;;;;20.20;99.90;;;;;;5031230;28;19947;-41
2023/09/03 08:56:43;;;;;;;;;;;20.20;99.90;;;;;;5061454;28;19979;-41
2023/09/03 08:59:10;;;;;;;;;;;20.20;99.90;;;;;;5031678;28;20423;-41
2023/09/03 09:01:37;;;;;;;;;;;20.30;99.90;;;;;;5031149;28;20282;-40
2023/09/03 09:04:04;;;;;;;;;;;20.40;99.90;;;;;;5030320;28;20438;-41
2023/09/03 09:06:30;;;;;;;;;;;20.50;99.90;;;;;;5022285;28;19967;-41
2023/09/03 09:08:58;;;;;;;;;;;20.60;99.90;;;;;;5021553;28;20266;-41
2023/09/03 09:11:26;;;;;;;;;;;20.80;99.90;;;;;;5031178;28;19941;-41
2023/09/03 09:13:55;;;;;;;;;;;20.90;99.90;;;;;;5031631;28;19933;-40
2023/09/03 09:16:22;;;;;;;;;;;21.10;99.90;;;;;;5026196;28;19929;-41
2023/09/03 09:18:48;;;;;;;;;;;21.20;99.90;;;;;;5026481;28;19944;-40
2023/09/03 09:21:15;;;;;;;;;;;21.20;99.90;;;;;;5030609;28;19960;-41
2023/09/03 09:23:42;;;;;;;;;;;21.20;99.90;;;;;;5032217;28;20026;-40
2023/09/03 09:26:18;;;;;;;;;;;21.20;99.90;;;;;;5026930;28;19943;-41
2023/09/03 09:29:00;;;;;;;;;;;21.30;99.90;;;;;;5018408;28;19990;-40
2023/09/03 09:31:29;;;;;;;;;;;21.40;99.90;;;;;;5015213;28;19946;-41
2023/09/03 09:33:55;;;;;;;;;;;21.60;99.90;;;;;;5015703;28;19942;-41
2023/09/03 09:36:22;;;;;;;;;;;21.60;99.90;;;;;;5023867;28;19939;-41
2023/09/03 09:38:49;;;;;;;;;;;21.70;99.90;;;;;;5024884;28;20053;-41
2023/09/03 09:41:20;;;;;;;;;;;21.80;99.90;;;;;;5021258;28;19988;-40
2023/09/03 09:43:47;;;;;;;;;;;21.90;99.90;;;;;;5017394;28;19933;-41
2023/09/03 09:46:16;;;;;;;;;;;21.90;99.90;;;;;;5027412;28;20014;-41
2023/09/03 09:48:46;;;;;;;;;;;22.00;99.90;;;;;;5016706;28;19947;-40
2023/09/03 09:51:13;;;;;;;;;;;22.10;99.90;;;;;;5015590;28;19926;-41
2023/09/03 09:53:40;;;;;;;;;;;22.20;99.90;;;;;;5057273;28;19943;-40
2023/09/03 09:56:09;;;;;;;;;;;22.20;99.90;;;;;;5027612;28;19963;-40
2023/09/03 09:58:36;;;;;;;;;;;22.30;99.90;;;;;;5023276;28;19961;-40
2023/09/03 10:01:03;;;;;;;;;;;22.30;99.90;;;;;;5027083;28;19947;-40
2023/09/03 10:03:40;;;;;;;;;;;22.30;99.90;;;;;;5030892;28;20009;-41
2023/09/03 10:06:08;;;;;;;;;;;22.20;99.90;;;;;;5034234;28;19939;-41
2023/09/03 10:08:35;;;;;;;;;;;22.20;99.90;;;;;;5026635;28;20393;-41
2023/09/03 10:11:02;;;;;;;;;;;22.20;99.90;;;;;;5030296;28;19982;-40
2023/09/03 10:13:29;;;;;;;;;;;22.30;99.90;;;;;;5028510;28;19940;-41
2023/09/03 10:15:56;;;;;;;;;;;22.40;99.90;;;;;;5024064;28;19956;-40
2023/09/03 10:18:23;;;;;;;;;;;22.50;99.90;;;;;;5025072;28;20351;-41
2023/09/03 10:20:49;;;;;;;;;;;22.60;99.90;;;;;;5023609;28;19930;-40
2023/09/03 10:23:17;;;;;;;;;;;22.80;99.90;;;;;;5021976;28;19943;-40
2023/09/03 10:25:45;;;;;;;;;;;23.00;99.90;;;;;;5031226;28;20273;-40
2023/09/03 10:28:12;;;;;;;;;;;23.00;99.90;;;;;;5031763;28;19950;-41
2023/09/03 10:30:39;;;;;;;;;;;23.10;99.90;;;;;;5031702;28;20042;-40
2023/09/03 10:33:06;;;;;;;;;;;23.10;99.90;;;;;;5028637;28;19962;-41
2023/09/03 10:35:33;;;;;;;;;;;23.10;99.90;;;;;;5033281;28;20356;-41
2023/09/03 10:38:00;;;;;;;;;;;23.20;99.90;;;;;;5033150;28;20427;-40
2023/09/03 10:40:29;;;;;;;;;;;23.20;99.90;;;;;;5032125;28;19955;-41
2023/09/03 10:43:12;;;;;;;;;;;23.20;99.90;;;;;;5029915;28;21825;-41
2023/09/03 10:45:39;;;;;;;;;;;23.30;99.90;;;;;;5032145;28;19941;-41
2023/09/03 10:48:06;;;;;;;;;;;23.40;99.90;;;;;;5032391;28;19968;-41
2023/09/03 10:50:42;;;;;;;;;;;23.50;99.90;;;;;;5026034;28;20038;-41
2023/09/03 10:53:09;;;;;;;;;;;23.50;99.90;;;;;;5030339;28;19955;-41
2023/09/03 10:55:38;;;;;;;;;;;23.50;99.90;;;;;;5028642;28;20596;-40
2023/09/03 10:58:30;;;;;;;;;;;23.50;99.90;;;;;;5021514;28;20439;-41
2023/09/03 11:01:18;;;;;;;;;;;23.60;99.90;;;;;;5044799;28;19969;-41
2023/09/03 11:03:45;;;;;;;;;;;23.80;99.90;;;;;;5017077;28;19997;-41
2023/09/03 11:06:16;;;;;;;;;;;23.90;99.90;;;;;;5029449;28;19979;-40
2023/09/03 11:08:42;;;;;;;;;;;24.00;99.90;;;;;;5030610;28;20012;-41
2023/09/03 11:11:11;;;;;;;;;;;24.20;99.90;;;;;;5026870;28;19940;-41
2023/09/03 11:13:37;;;;;;;;;;;24.30;99.90;;;;;;5019707;28;20024;-40
2023/09/03 11:16:04;;;;;;;;;;;24.30;99.90;;;;;;5040461;28;19925;-41
2023/09/03 11:18:32;;;;;;;;;;;24.40;99.90;;;;;;5024447;28;19999;-41
2023/09/03 11:20:59;;;;;;;;;;;24.50;99.90;;;;;;5026489;28;20035;-41
2023/09/03 11:23:27;;;;;;;;;;;24.60;99.90;;;;;;5024323;28;19937;-40
2023/09/03 11:25:54;;;;;;;;;;;24.70;99.90;;;;;;5024760;28;20296;-41
2023/09/03 11:28:22;;;;;;;;;;;24.70;99.90;;;;;;5021130;28;19933;-40
2023/09/03 11:30:50;;;;;;;;;;;24.70;99.90;;;;;;5020606;28;20005;-41
2023/09/03 11:33:23;;;;;;;;;;;24.70;99.90;;;;;;5021200;28;19925;-41
2023/09/03 11:35:50;;;;;;;;;;;24.80;99.90;;;;;;5022234;28;19937;-41
2023/09/03 11:38:16;;;;;;;;;;;24.90;99.90;;;;;;5020924;28;19988;-41
2023/09/03 11:40:43;;;;;;;;;;;25.00;99.90;;;;;;5017345;28;20527;-41
2023/09/03 11:43:10;;;;;;;;;;;25.10;99.90;;;;;;5014890;28;19938;-41
2023/09/03 11:45:38;;;;;;;;;;;25.10;99.90;;;;;;5017687;28;19950;-40
2023/09/03 11:48:07;;;;;;;;;;;25.10;99.90;;;;;;5022504;28;19944;-40
2023/09/03 11:50:34;;;;;;;;;;;25.00;99.90;;;;;;5033323;28;20377;-40
2023/09/03 11:53:04;;;;;;;;;;;25.10;99.90;;;;;;5058862;28;19964;-40
2023/09/03 11:55:32;;;;;;;;;;;25.30;99.90;;;;;;5064615;28;19939;-40
2023/09/03 11:58:00;;;;;;;;;;;25.40;99.90;;;;;;5022899;28;19983;-40
2023/09/03 12:00:27;;;;;;;;;;;25.50;99.90;;;;;;5027197;28;19931;-40
2023/09/03 12:02:55;;;;;;;;;;;25.60;99.20;;;;;;5030820;28;19959;-40
2023/09/03 12:05:21;;;;;;;;;;;25.50;99.20;;;;;;5064246;28;20396;-40
2023/09/03 12:07:48;;;;;;;;;;;25.50;98.70;;;;;;5034237;28;19925;-40
2023/09/03 12:10:17;;;;;;;;;;;25.50;99.50;;;;;;5024712;28;19963;-40
2023/09/03 12:12:44;;;;;;;;;;;25.50;97.60;;;;;;5020930;28;19939;-40
2023/09/03 12:15:18;;;;;;;;;;;25.60;99.40;;;;;;5027053;28;20377;-40
2023/09/03 12:17:44;;;;;;;;;;;25.60;98.80;;;;;;5032072;28;20253;-40
2023/09/03 12:20:26;;;;;;;;;;;25.70;99.60;;;;;;5030905;28;19961;-40
2023/09/03 12:22:54;;;;;;;;;;;25.90;98.30;;;;;;5030299;28;19929;-40
2023/09/03 12:25:20;;;;;;;;;;;26.10;98.90;;;;;;5031266;28;19979;-40
2023/09/03 12:27:48;;;;;;;;;;;26.20;99.30;;;;;;5031222;28;19940;-40
2023/09/03 12:30:16;;;;;;;;;;;26.30;99.50;;;;;;5030607;28;19925;-40
2023/09/03 12:32:42;;;;;;;;;;;26.40;98.80;;;;;;5018901;28;20025;-40
2023/09/03 12:35:16;;;;;;;;;;;26.40;98.10;;;;;;5031875;28;19941;-41
2023/09/03 12:37:43;;;;;;;;;;;26.40;97.60;;;;;;5031735;28;20398;-41
2023/09/03 12:40:11;;;;;;;;;;;26.40;98.40;;;;;;5030923;28;19925;-41
2023/09/03 12:42:38;;;;;;;;;;;26.40;98.70;;;;;;5034259;28;19925;-41
2023/09/03 12:45:05;;;;;;;;;;;26.50;99.00;;;;;;5029615;28;19968;-41
2023/09/03 12:47:31;;;;;;;;;;;26.50;98.90;;;;;;5027138;28;19955;-41
2023/09/03 12:49:58;;;;;;;;;;;26.50;98.80;;;;;;5027071;28;19933;-41
2023/09/03 12:52:25;;;;;;;;;;;26.60;98.40;;;;;;5035738;28;19960;-40
2023/09/03 12:54:51;;;;;;;;;;;26.70;98.60;;;;;;5034873;28;19963;-42
2023/09/03 12:57:22;;;;;;;;;;;26.80;98.20;;;;;;5035641;28;19960;-41
2023/09/03 12:59:48;;;;;;;;;;;26.90;99.40;;;;;;5034172;28;19955;-41
2023/09/03 13:02:17;;;;;;;;;;;27.10;98.40;;;;;;5034430;28;20470;-42
2023/09/03 13:04:44;;;;;;;;;;;27.20;97.50;;;;;;5065324;28;19946;-41
2023/09/03 13:07:10;;;;;;;;;;;27.20;98.20;;;;;;5034698;28;19945;-42
2023/09/03 13:09:37;;;;;;;;;;;27.30;98.30;;;;;;5034922;28;19959;-42
2023/09/03 13:12:04;;;;;;;;;;;27.20;97.30;;;;;;5033965;28;19969;-41
2023/09/03 13:14:32;;;;;;;;;;;27.10;97.20;;;;;;5034369;28;19979;-41
2023/09/03 13:16:59;;;;;;;;;;;27.20;97.10;;;;;;5033460;28;19959;-42
2023/09/03 13:19:25;;;;;;;;;;;27.00;96.70;;;;;;5067190;28;19932;-41
2023/09/03 13:21:52;;;;;;;;;;;26.80;97.00;;;;;;5035158;28;19986;-42
2023/09/03 13:24:19;;;;;;;;;;;26.70;98.10;;;;;;5033851;28;20058;-41
2023/09/03 13:26:50;;;;;;;;;;;26.60;97.80;;;;;;5067295;28;19939;-41
2023/09/03 13:29:17;;;;;;;;;;;26.60;98.10;;;;;;5035025;28;20371;-42
2023/09/03 13:31:45;;;;;;;;;;;26.60;98.60;;;;;;5034919;28;19973;-41
2023/09/03 13:34:12;;;;;;;;;;;26.60;98.60;;;;;;5034701;28;19973;-41
2023/09/03 13:36:40;;;;;;;;;;;26.60;98.20;;;;;;5034477;28;19995;-41
2023/09/03 13:39:07;;;;;;;;;;;26.60;98.10;;;;;;5065621;28;20457;-41
2023/09/03 13:41:32;;;;;;;;;;;26.60;97.70;;;;;;5022028;28;19968;-41
2023/09/03 13:43:59;;;;;;;;;;;26.60;98.10;;;;;;5050389;28;19984;-41
2023/09/03 13:46:26;;;;;;;;;;;26.60;98.10;;;;;;5034341;28;19939;-41
2023/09/03 13:48:55;;;;;;;;;;;26.60;98.10;;;;;;5033508;28;19979;-41
2023/09/03 13:51:21;;;;;;;;;;;26.70;98.40;;;;;;5034237;28;19961;-41
2023/09/03 13:53:53;;;;;;;;;;;26.80;97.80;;;;;;5031407;28;20325;-41
2023/09/03 13:56:19;;;;;;;;;;;26.80;96.90;;;;;;5033090;28;20391;-41
2023/09/03 13:58:46;;;;;;;;;;;26.80;97.40;;;;;;5034656;28;19971;-41
2023/09/03 14:01:13;;;;;;;;;;;26.80;96.40;;;;;;5028857;28;20416;-41
2023/09/03 14:03:40;;;;;;;;;;;26.70;96.90;;;;;;5022105;28;19925;-39
2023/09/03 14:06:08;;;;;;;;;;;26.60;97.00;;;;;;5025746;28;20697;-41
2023/09/03 14:08:35;;;;;;;;;;;26.60;97.50;;;;;;5029017;28;19996;-41
2023/09/03 14:11:01;;;;;;;;;;;26.50;97.70;;;;;;5029295;28;19945;-41
2023/09/03 14:15:57;;;;;;;;;;;26.50;97.10;;;;;;5036838;22;1949229;-33
2023/09/03 14:18:27;;;;;;;;;;;26.40;96.80;;;;;;5067633;28;19925;-33
2023/09/03 14:20:54;;;;;;;;;;;26.40;97.60;;;;;;5068722;28;20299;-33